METAR és
SPECI
METAR LHBP 191730Z 29005KT CAVOK 10/M03 Q1019 NOSIG=
METAR LHBP 191700Z 27006KT CAVOK 10/M02 Q1019 NOSIG=
METAR LHBP 191630Z 27006KT CAVOK 12/M04 Q1019 NOSIG=
METAR LHBP 191600Z 29008KT 270V330 CAVOK 12/M04 Q1019 NOSIG=
METAR LHBP 191530Z 29008KT 250V340 CAVOK 12/M04 Q1019 NOSIG=
METAR LHBP 191500Z 30005KT 250V340 CAVOK 12/M05 Q1019 NOSIG=
TAF
TAF LHBP 191700Z 1918/2018 29005KT CAVOK TEMPO 1922/2004 VRB03KT BECMG 2006/2008 33014KT TEMPO 2012/2016 34018G30KT=
GAMET
FAHU41 LHBM 191100
LHCC GAMET VALID 191200/191800 LHBP-
BUDAPEST FIR BLW FL100
SECN I
SIG CLD: 12/18 ISOL TCU CB 3000-4000/XXX FT AGL E OF E02030
SIGMETS APPLICABLE: NIL=
OMSZ: 2015. április 19. 13:02 (11:02  UTC)
[FAHU41]
AIRMET
Nincs érvényes távirat! 
WAHU41 LHBM 181630
LHCC AIRMET 01 VALID 181630/181800 LHBP-
LHCC BUDAPEST FIR ISOL TS SE OF LINE N4734 E02206 -
N4716 E01958 - N4611 E01958 TOP ABV FL100 MOV S WKN=
OMSZ: 2015. április 18. 18:38 (16:38  UTC)
[WAHU41]
SIGMET
Nincs érvényes távirat! 
WSHU31 LHBM 171645
LHCC SIGMET 03 VALID 171645/1815 LHBP-
LHCC BUDAPEST FIR CNL SIGMET 02 171615/171815=
OMSZ: 2015. április 17. 18:52 (16:52  UTC)
[WSHU31]
SIGMET
Vulkáni hamufelhő
Nincs érvényes távirat! 
WVHU31 LHBM 271515 CCA
LHCC SIGMET 03 VALID 271515/271800 LHBP-
LHCC BUDAPEST FIR EXERCISE VOLCEX12/01
CNL VA SIGMET 02 271200/271800
EXERCISE EXERCISE EXERCISE VOLCEX12/01=
OMSZ: 2015. április 14. 15:15 (13:15  UTC)
[WVHU31]